sensor_id;sensor_type;location;lat;lon;timestamp;P1;durP1;ratioP1;P2;durP2;ratioP2
72645;SDS011;60687;53.876;10.674;2024-03-22T00:00:43;15.02;;;6.05;;
72645;SDS011;60687;53.876;10.674;2024-03-22T00:10:48;14.00;;;6.50;;
72645;SDS011;60687;53.876;10.674;2024-03-22T00:20:51;16.00;;;6.30;;
72645;SDS011;60687;53.876;10.674;2024-03-22T00:30:54;19.25;;;7.30;;
72645;SDS011;60687;53.876;10.674;2024-03-22T00:40:57;20.53;;;7.40;;
72645;SDS011;60687;53.876;10.674;2024-03-22T00:51:00;17.43;;;7.97;;
72645;SDS011;60687;53.876;10.674;2024-03-22T01:01:03;16.65;;;6.97;;
72645;SDS011;60687;53.876;10.674;2024-03-22T01:11:07;17.15;;;7.70;;
72645;SDS011;60687;53.876;10.674;2024-03-22T01:21:09;16.23;;;7.67;;
72645;SDS011;60687;53.876;10.674;2024-03-22T01:31:14;19.63;;;8.37;;
72645;SDS011;60687;53.876;10.674;2024-03-22T01:41:16;15.93;;;7.22;;
72645;SDS011;60687;53.876;10.674;2024-03-22T01:51:20;18.00;;;8.07;;
72645;SDS011;60687;53.876;10.674;2024-03-22T02:01:22;17.73;;;8.27;;
72645;SDS011;60687;53.876;10.674;2024-03-22T02:11:27;18.60;;;8.27;;
72645;SDS011;60687;53.876;10.674;2024-03-22T02:21:30;19.83;;;8.20;;
72645;SDS011;60687;53.876;10.674;2024-03-22T02:31:35;14.77;;;7.23;;
72645;SDS011;60687;53.876;10.674;2024-03-22T02:41:37;15.93;;;8.35;;
72645;SDS011;60687;53.876;10.674;2024-03-22T02:51:41;15.80;;;7.53;;
72645;SDS011;60687;53.876;10.674;2024-03-22T03:01:43;16.27;;;7.20;;
72645;SDS011;60687;53.876;10.674;2024-03-22T03:11:47;16.93;;;7.93;;
72645;SDS011;60687;53.876;10.674;2024-03-22T03:21:50;17.85;;;8.45;;
72645;SDS011;60687;53.876;10.674;2024-03-22T03:31:53;16.47;;;8.07;;
72645;SDS011;60687;53.876;10.674;2024-03-22T03:41:56;21.70;;;9.33;;
72645;SDS011;60687;53.876;10.674;2024-03-22T03:51:59;19.63;;;8.77;;
72645;SDS011;60687;53.876;10.674;2024-03-22T04:02:02;21.30;;;9.57;;
72645;SDS011;60687;53.876;10.674;2024-03-22T04:12:07;20.83;;;10.03;;
72645;SDS011;60687;53.876;10.674;2024-03-22T04:22:11;22.13;;;9.93;;
72645;SDS011;60687;53.876;10.674;2024-03-22T04:32:14;22.42;;;10.23;;
72645;SDS011;60687;53.876;10.674;2024-03-22T04:42:16;23.13;;;10.93;;
72645;SDS011;60687;53.876;10.674;2024-03-22T04:52:20;25.53;;;11.90;;
72645;SDS011;60687;53.876;10.674;2024-03-22T05:02:22;24.58;;;11.65;;
72645;SDS011;60687;53.876;10.674;2024-03-22T05:12:26;29.23;;;13.53;;
72645;SDS011;60687;53.876;10.674;2024-03-22T05:22:28;27.87;;;12.43;;
72645;SDS011;60687;53.876;10.674;2024-03-22T05:32:32;28.75;;;13.68;;
72645;SDS011;60687;53.876;10.674;2024-03-22T05:42:34;28.63;;;13.37;;
72645;SDS011;60687;53.876;10.674;2024-03-22T05:52:38;31.37;;;14.77;;
72645;SDS011;60687;53.876;10.674;2024-03-22T06:02:40;28.10;;;13.23;;
72645;SDS011;60687;53.876;10.674;2024-03-22T06:12:44;35.60;;;15.48;;
72645;SDS011;60687;53.876;10.674;2024-03-22T06:22:47;30.80;;;14.03;;
72645;SDS011;60687;53.876;10.674;2024-03-22T06:32:51;31.30;;;15.50;;
72645;SDS011;60687;53.876;10.674;2024-03-22T06:42:53;33.88;;;15.98;;
72645;SDS011;60687;53.876;10.674;2024-03-22T06:52:57;37.10;;;17.13;;
72645;SDS011;60687;53.876;10.674;2024-03-22T07:03:01;37.30;;;18.47;;
72645;SDS011;60687;53.876;10.674;2024-03-22T07:13:05;36.78;;;18.00;;
72645;SDS011;60687;53.876;10.674;2024-03-22T07:23:08;38.03;;;18.30;;
72645;SDS011;60687;53.876;10.674;2024-03-22T07:33:12;40.10;;;18.23;;
72645;SDS011;60687;53.876;10.674;2024-03-22T07:43:17;39.47;;;17.92;;
72645;SDS011;60687;53.876;10.674;2024-03-22T07:53:21;40.15;;;18.50;;
72645;SDS011;60687;53.876;10.674;2024-03-22T08:03:23;43.37;;;21.27;;
72645;SDS011;60687;53.876;10.674;2024-03-22T08:13:27;43.07;;;20.13;;
72645;SDS011;60687;53.876;10.674;2024-03-22T08:23:30;48.20;;;21.95;;
72645;SDS011;60687;53.876;10.674;2024-03-22T08:33:33;40.60;;;19.63;;
72645;SDS011;60687;53.876;10.674;2024-03-22T08:43:36;40.67;;;19.00;;
72645;SDS011;60687;53.876;10.674;2024-03-22T08:53:39;43.60;;;20.73;;
72645;SDS011;60687;53.876;10.674;2024-03-22T09:03:42;37.27;;;18.43;;
72645;SDS011;60687;53.876;10.674;2024-03-22T09:13:48;43.63;;;19.10;;
72645;SDS011;60687;53.876;10.674;2024-03-22T09:23:53;39.80;;;18.50;;
72645;SDS011;60687;53.876;10.674;2024-03-22T09:33:57;42.28;;;19.85;;
72645;SDS011;60687;53.876;10.674;2024-03-22T09:43:59;40.20;;;18.27;;
72645;SDS011;60687;53.876;10.674;2024-03-22T09:54:06;41.27;;;18.57;;
72645;SDS011;60687;53.876;10.674;2024-03-22T10:04:11;39.08;;;18.08;;
72645;SDS011;60687;53.876;10.674;2024-03-22T10:14:15;40.97;;;18.17;;
72645;SDS011;60687;53.876;10.674;2024-03-22T10:24:18;36.33;;;17.73;;
72645;SDS011;60687;53.876;10.674;2024-03-22T10:34:22;35.30;;;16.15;;
72645;SDS011;60687;53.876;10.674;2024-03-22T10:44:26;36.20;;;16.90;;
72645;SDS011;60687;53.876;10.674;2024-03-22T10:54:31;33.57;;;15.57;;
72645;SDS011;60687;53.876;10.674;2024-03-22T11:04:36;31.55;;;15.30;;
72645;SDS011;60687;53.876;10.674;2024-03-22T11:14:40;27.17;;;13.18;;
72645;SDS011;60687;53.876;10.674;2024-03-22T11:24:43;25.87;;;12.77;;
72645;SDS011;60687;53.876;10.674;2024-03-22T11:34:47;22.73;;;11.10;;
72645;SDS011;60687;53.876;10.674;2024-03-22T11:44:50;18.95;;;8.60;;
72645;SDS011;60687;53.876;10.674;2024-03-22T11:54:55;17.33;;;7.70;;
72645;SDS011;60687;53.876;10.674;2024-03-22T12:05:00;17.83;;;7.80;;
72645;SDS011;60687;53.876;10.674;2024-03-22T12:15:05;20.10;;;9.32;;
72645;SDS011;60687;53.876;10.674;2024-03-22T12:57:24;6.60;;;2.40;;
72645;SDS011;60687;53.876;10.674;2024-03-22T13:07:26;7.70;;;2.63;;
72645;SDS011;60687;53.876;10.674;2024-03-22T13:17:31;6.30;;;2.17;;
72645;SDS011;60687;53.876;10.674;2024-03-22T13:27:34;5.82;;;2.00;;
72645;SDS011;60687;53.876;10.674;2024-03-22T13:37:41;5.50;;;2.10;;
72645;SDS011;60687;53.876;10.674;2024-03-22T13:47:44;6.67;;;2.40;;
72645;SDS011;60687;53.876;10.674;2024-03-22T13:57:47;5.50;;;2.13;;
72645;SDS011;60687;53.876;10.674;2024-03-22T14:07:50;6.70;;;2.40;;
72645;SDS011;60687;53.876;10.674;2024-03-22T14:17:54;6.87;;;2.17;;
72645;SDS011;60687;53.876;10.674;2024-03-22T14:27:57;7.07;;;2.45;;
72645;SDS011;60687;53.876;10.674;2024-03-22T14:38:01;8.65;;;2.10;;
72645;SDS011;60687;53.876;10.674;2024-03-22T14:48:04;12.60;;;2.27;;
72645;SDS011;60687;53.876;10.674;2024-03-22T14:58:09;13.57;;;2.73;;
72645;SDS011;60687;53.876;10.674;2024-03-22T15:08:11;13.93;;;3.10;;
72645;SDS011;60687;53.876;10.674;2024-03-22T15:18:15;11.57;;;2.97;;
72645;SDS011;60687;53.876;10.674;2024-03-22T15:28:18;13.80;;;2.97;;
72645;SDS011;60687;53.876;10.674;2024-03-22T15:38:22;7.53;;;2.25;;
72645;SDS011;60687;53.876;10.674;2024-03-22T15:48:26;12.80;;;3.70;;
72645;SDS011;60687;53.876;10.674;2024-03-22T15:58:31;13.60;;;3.50;;
72645;SDS011;60687;53.876;10.674;2024-03-22T16:08:35;14.13;;;3.45;;
72645;SDS011;60687;53.876;10.674;2024-03-22T16:18:39;13.30;;;3.08;;
72645;SDS011;60687;53.876;10.674;2024-03-22T16:28:42;15.57;;;3.60;;
72645;SDS011;60687;53.876;10.674;2024-03-22T16:38:48;19.13;;;3.70;;
72645;SDS011;60687;53.876;10.674;2024-03-22T16:48:50;15.85;;;3.13;;
72645;SDS011;60687;53.876;10.674;2024-03-22T16:58:55;10.97;;;3.03;;
72645;SDS011;60687;53.876;10.674;2024-03-22T17:08:58;19.03;;;4.10;;
72645;SDS011;60687;53.876;10.674;2024-03-22T17:19:03;12.48;;;3.10;;
72645;SDS011;60687;53.876;10.674;2024-03-22T17:29:08;13.03;;;3.30;;
72645;SDS011;60687;53.876;10.674;2024-03-22T17:39:14;13.83;;;3.03;;
72645;SDS011;60687;53.876;10.674;2024-03-22T17:49:18;14.90;;;3.17;;
72645;SDS011;60687;53.876;10.674;2024-03-22T17:59:22;13.48;;;3.10;;
72645;SDS011;60687;53.876;10.674;2024-03-22T18:09:29;12.50;;;3.13;;
72645;SDS011;60687;53.876;10.674;2024-03-22T18:19:33;13.47;;;3.00;;
72645;SDS011;60687;53.876;10.674;2024-03-22T18:29:36;15.77;;;3.20;;
72645;SDS011;60687;53.876;10.674;2024-03-22T18:39:40;18.47;;;3.90;;
72645;SDS011;60687;53.876;10.674;2024-03-22T18:49:43;15.33;;;3.83;;
72645;SDS011;60687;53.876;10.674;2024-03-22T18:59:47;18.00;;;3.10;;
72645;SDS011;60687;53.876;10.674;2024-03-22T19:09:50;15.83;;;3.07;;
72645;SDS011;60687;53.876;10.674;2024-03-22T19:19:54;14.27;;;3.40;;
72645;SDS011;60687;53.876;10.674;2024-03-22T19:29:57;13.07;;;2.95;;
72645;SDS011;60687;53.876;10.674;2024-03-22T19:40:02;13.80;;;3.17;;
72645;SDS011;60687;53.876;10.674;2024-03-22T19:50:05;15.20;;;3.60;;
72645;SDS011;60687;53.876;10.674;2024-03-22T20:00:10;17.60;;;2.93;;
72645;SDS011;60687;53.876;10.674;2024-03-22T20:10:16;12.82;;;3.20;;
72645;SDS011;60687;53.876;10.674;2024-03-22T20:20:20;13.77;;;3.40;;
72645;SDS011;60687;53.876;10.674;2024-03-22T20:30:23;14.40;;;3.27;;
